Time;durP1;ratioP1;P1;durP2;ratioP2;P2;SDS_P1;SDS_P2;PMS_P1;PMS_P2;Temp;Humidity;BMP_temperature;BMP_pressure;BME280_temperature;BME280_humidity;BME280_pressure;Samples;Min_cycle;Max_cycle;Signal;HPM_P1;HPM_P2
2023/07/10 00:01:06;;;;;;;2.30;1.33;;;28.70;47.20;;;;;;4979612;28;20101;-65
2023/07/10 00:03:32;;;;;;;2.15;1.60;;;28.70;47.20;;;;;;4978133;28;20038;-66
2023/07/10 00:05:59;;;;;;;2.58;1.50;;;28.60;47.10;;;;;;4978132;28;20027;-66
2023/07/10 00:08:26;;;;;;;2.20;1.50;;;28.60;47.10;;;;;;4980176;28;20088;-66
2023/07/10 00:10:52;;;;;;;2.63;1.45;;;28.60;47.10;;;;;;4979110;28;20490;-65
2023/07/10 00:13:21;;;;;;;2.30;1.60;;;28.60;47.10;;;;;;4979260;28;20034;-66
2023/07/10 00:15:49;;;;;;;2.25;1.60;;;28.60;47.10;;;;;;4979333;28;20030;-65
2023/07/10 00:18:17;;;;;;;2.15;1.50;;;28.60;47.10;;;;;;4976343;28;20031;-66
2023/07/10 00:20:45;;;;;;;2.43;1.50;;;28.60;47.10;;;;;;4978485;28;20042;-66
2023/07/10 00:23:11;;;;;;;1.75;1.27;;;28.60;47.10;;;;;;4977117;28;20035;-66
2023/07/10 00:25:37;;;;;;;2.30;1.45;;;28.60;47.10;;;;;;4981150;28;20042;-66
2023/07/10 00:28:11;;;;;;;2.22;1.45;;;28.60;47.10;;;;;;4977921;28;20034;-66
2023/07/10 00:30:36;;;;;;;1.83;1.35;;;28.60;47.10;;;;;;4978070;28;20155;-66
2023/07/10 00:33:07;;;;;;;2.08;1.50;;;28.60;47.10;;;;;;4976347;28;20137;-65
2023/07/10 00:35:33;;;;;;;2.60;1.60;;;28.50;47.10;;;;;;4976426;28;20061;-66
2023/07/10 00:38:01;;;;;;;2.22;1.30;;;28.60;47.10;;;;;;4979390;28;20471;-65
2023/07/10 00:40:29;;;;;;;2.13;1.50;;;28.60;47.10;;;;;;4980204;28;20336;-66
2023/07/10 00:43:05;;;;;;;2.55;1.60;;;28.50;47.00;;;;;;4979403;28;20395;-66
2023/07/10 00:45:30;;;;;;;2.45;1.60;;;28.50;47.10;;;;;;4978587;28;20073;-66
2023/07/10 00:48:26;;;;;;;2.30;1.50;;;28.50;47.10;;;;;;4977466;28;20050;-66
2023/07/10 00:50:52;;;;;;;1.98;1.42;;;28.50;47.10;;;;;;4976589;28;20037;-66
2023/07/10 00:53:25;;;;;;;2.30;1.60;;;28.50;47.10;;;;;;4979179;28;20019;-66
2023/07/10 00:55:53;;;;;;;2.20;1.48;;;28.50;47.10;;;;;;4978916;28;20360;-66
2023/07/10 00:58:26;;;;;;;2.47;1.48;;;28.50;47.60;;;;;;4960043;28;20062;-66
2023/07/10 01:01:10;;;;;;;2.35;1.60;;;28.50;47.10;;;;;;4980091;28;20050;-65
2023/07/10 01:03:38;;;;;;;1.98;1.30;;;28.50;47.10;;;;;;4979454;28;20053;-66
2023/07/10 01:06:26;;;;;;;2.00;1.40;;;28.50;47.10;;;;;;4977699;28;20521;-66
2023/07/10 01:08:59;;;;;;;1.98;1.38;;;28.50;47.10;;;;;;4964778;28;20506;-66
2023/07/10 01:11:25;;;;;;;1.92;1.40;;;28.50;47.10;;;;;;4978775;28;20038;-66
2023/07/10 01:13:53;;;;;;;2.95;1.60;;;28.50;47.10;;;;;;4977580;28;20420;-65
2023/07/10 01:16:20;;;;;;;3.45;1.60;;;28.50;47.10;;;;;;4976456;28;20526;-66
2023/07/10 01:18:46;;;;;;;2.20;1.48;;;28.50;47.10;;;;;;4978017;28;20069;-66
2023/07/10 01:21:30;;;;;;;2.33;1.33;;;28.50;47.10;;;;;;4978220;28;20598;-65
2023/07/10 01:23:56;;;;;;;2.72;1.50;;;28.50;47.10;;;;;;4978944;28;20023;-66
2023/07/10 01:26:22;;;;;;;2.35;1.50;;;28.50;47.10;;;;;;4979428;28;20031;-66
2023/07/10 01:28:48;;;;;;;1.73;1.23;;;28.50;47.10;;;;;;4975705;28;20038;-66
2023/07/10 01:31:17;;;;;;;1.85;1.30;;;28.50;47.10;;;;;;4979498;28;20030;-66
2023/07/10 01:34:04;;;;;;;2.10;1.40;;;28.50;47.10;;;;;;4978930;28;20084;-65
2023/07/10 01:36:35;;;;;;;2.40;1.40;;;28.50;47.10;;;;;;4977379;28;20035;-65
2023/07/10 01:39:10;;;;;;;1.77;1.23;;;28.40;47.00;;;;;;4977894;28;20035;-66
2023/07/10 01:41:41;;;;;;;2.40;1.55;;;28.50;47.10;;;;;;4980088;28;20061;-66
2023/07/10 01:44:32;;;;;;;2.35;1.58;;;28.40;47.00;;;;;;4978297;28;20041;-65
2023/07/10 01:46:59;;;;;;;2.15;1.58;;;28.40;47.00;;;;;;4982735;28;20461;-66
2023/07/10 01:49:28;;;;;;;2.25;1.70;;;28.50;47.10;;;;;;4981069;28;20053;-66
2023/07/10 01:51:55;;;;;;;;;;;28.40;47.00;;;;;;4983791;28;20058;-66
2023/07/10 01:54:20;;;;;;;2.60;1.45;;;28.50;47.10;;;;;;4981522;28;20478;-66
2023/07/10 01:56:47;;;;;;;2.00;1.30;;;28.40;47.00;;;;;;4981719;28;20039;-65
2023/07/10 01:59:13;;;;;;;2.55;1.75;;;28.40;47.50;;;;;;4980882;28;20486;-66
2023/07/10 02:01:38;;;;;;;2.05;1.23;;;28.50;47.10;;;;;;4981786;28;20031;-66
2023/07/10 02:04:04;;;;;;;1.60;1.25;;;28.40;47.00;;;;;;4982007;28;20053;-66
2023/07/10 02:06:31;;;;;;;2.13;1.40;;;28.40;47.00;;;;;;4980813;28;20065;-66
2023/07/10 02:08:57;;;;;;;1.65;1.23;;;28.40;47.00;;;;;;4981585;28;20550;-66
2023/07/10 02:11:22;;;;;;;2.15;1.40;;;28.40;47.00;;;;;;4983207;28;20034;-66
2023/07/10 02:13:48;;;;;;;2.45;1.50;;;28.40;47.00;;;;;;4965105;28;20113;-66
2023/07/10 02:16:15;;;;;;;2.15;1.38;;;28.40;47.00;;;;;;4982443;28;20460;-64
2023/07/10 02:18:40;;;;;;;2.08;1.35;;;28.40;47.00;;;;;;4983140;28;20038;-66
2023/07/10 02:21:07;;;;;;;2.20;1.40;;;28.40;47.00;;;;;;4979962;28;20093;-66
2023/07/10 02:23:34;;;;;;;2.45;1.60;;;28.40;47.00;;;;;;4962735;28;20521;-66
2023/07/10 02:26:01;;;;;;;2.35;1.52;;;28.40;47.00;;;;;;4983051;28;20018;-66
2023/07/10 02:28:26;;;;;;;2.38;1.60;;;28.40;46.90;;;;;;4964701;28;20030;-66
2023/07/10 02:30:52;;;;;;;1.80;1.33;;;28.40;47.00;;;;;;4963561;28;20043;-65
2023/07/10 02:33:19;;;;;;;3.20;1.50;;;28.40;46.90;;;;;;4981358;28;20053;-66
2023/07/10 02:35:45;;;;;;;2.30;1.60;;;28.40;47.00;;;;;;4979508;28;20050;-66
2023/07/10 02:38:11;;;;;;;2.20;1.48;;;28.40;46.90;;;;;;4980875;28;20042;-66
2023/07/10 02:40:36;;;;;;;2.28;1.50;;;28.30;46.90;;;;;;4981519;28;20089;-66
2023/07/10 02:43:02;;;;;;;2.08;1.42;;;28.30;46.90;;;;;;4979973;28;20058;-65
2023/07/10 02:45:28;;;;;;;2.20;1.60;;;28.30;46.90;;;;;;4972759;28;20356;-66
2023/07/10 02:47:53;;;;;;;1.95;1.40;;;28.40;46.90;;;;;;4979078;28;20027;-65
2023/07/10 02:50:19;;;;;;;2.72;1.40;;;28.40;46.90;;;;;;4980940;28;20077;-66
2023/07/10 02:52:44;;;;;;;2.10;1.50;;;28.30;46.90;;;;;;4971153;28;20628;-66
2023/07/10 02:55:10;;;;;;;2.05;1.50;;;28.30;46.90;;;;;;4980226;28;20026;-66
2023/07/10 02:57:36;;;;;;;2.47;1.40;;;28.30;46.90;;;;;;4979408;28;20026;-66
2023/07/10 03:00:03;;;;;;;2.38;1.65;;;28.30;46.90;;;;;;4980383;28;20109;-65
2023/07/10 03:02:29;;;;;;;1.90;1.48;;;28.40;46.90;;;;;;4980008;28;20443;-66
2023/07/10 03:04:54;;;;;;;2.15;1.50;;;28.30;46.80;;;;;;4980087;28;20031;-66
2023/07/10 03:07:20;;;;;;;2.10;1.60;;;28.30;46.80;;;;;;4963817;28;20050;-66
2023/07/10 03:09:45;;;;;;;2.17;1.42;;;28.30;46.90;;;;;;4980865;28;20471;-66
2023/07/10 03:12:11;;;;;;;2.30;1.40;;;28.30;46.80;;;;;;4983187;28;20031;-66
2023/07/10 03:14:37;;;;;;;2.40;1.50;;;28.30;46.80;;;;;;4964527;28;20057;-66
2023/07/10 03:17:04;;;;;;;2.03;1.42;;;28.30;46.90;;;;;;4979781;28;20059;-66
2023/07/10 03:19:31;;;;;;;2.55;1.77;;;28.30;46.90;;;;;;4979249;28;20061;-66
2023/07/10 03:21:57;;;;;;;1.88;1.40;;;28.30;46.80;;;;;;4981210;28;20478;-66
2023/07/10 03:24:23;;;;;;;1.80;1.30;;;28.30;46.90;;;;;;4978265;28;20118;-66
2023/07/10 03:26:48;;;;;;;1.95;1.40;;;28.30;46.90;;;;;;4978617;28;20405;-66
2023/07/10 03:29:15;;;;;;;1.88;1.38;;;28.30;46.90;;;;;;4980328;28;20532;-67
2023/07/10 03:31:42;;;;;;;2.80;1.60;;;28.30;46.90;;;;;;4970152;28;20058;-66
2023/07/10 03:34:10;;;;;;;4.47;1.90;;;28.30;46.80;;;;;;4964489;28;20049;-66
2023/07/10 03:36:36;;;;;;;3.83;2.00;;;28.30;46.40;;;;;;4979602;28;20023;-66
2023/07/10 03:39:02;;;;;;;3.65;2.10;;;28.20;46.00;;;;;;4980709;28;20045;-66
2023/07/10 03:41:28;;;;;;;3.15;2.20;;;28.30;45.90;;;;;;4979275;28;20025;-66
2023/07/10 03:43:54;;;;;;;3.50;2.20;;;28.20;45.70;;;;;;4980421;28;20038;-66
2023/07/10 03:46:20;;;;;;;4.57;2.22;;;28.20;45.50;;;;;;4978633;28;20498;-66
2023/07/10 03:48:47;;;;;;;5.07;2.15;;;28.20;45.50;;;;;;4980588;28;20061;-66
2023/07/10 03:51:14;;;;;;;3.83;2.33;;;28.20;45.50;;;;;;4977671;28;20317;-66
2023/07/10 03:53:40;;;;;;;3.30;2.30;;;28.20;45.50;;;;;;4980328;28;20037;-66
2023/07/10 03:56:06;;;;;;;3.72;2.20;;;28.10;45.40;;;;;;4980341;28;20018;-66
2023/07/10 03:58:33;;;;;;;3.75;2.20;;;28.10;45.50;;;;;;4980948;28;20490;-66
2023/07/10 04:01:00;;;;;;;4.18;2.65;;;28.10;45.50;;;;;;4978394;28;20487;-66
2023/07/10 04:03:29;;;;;;;3.60;2.60;;;28.00;45.60;;;;;;4978895;28;20569;-66
2023/07/10 04:05:58;;;;;;;5.28;2.55;;;28.10;45.70;;;;;;4979381;28;20042;-66
2023/07/10 04:08:27;;;;;;;4.65;2.70;;;28.00;45.80;;;;;;4976235;28;20066;-66
2023/07/10 04:10:55;;;;;;;4.18;2.80;;;28.00;45.90;;;;;;4978469;28;20026;-66
2023/07/10 04:13:21;;;;;;;3.88;2.47;;;28.00;46.10;;;;;;4980041;28;20113;-66
2023/07/10 04:16:03;;;;;;;4.03;2.60;;;28.00;46.10;;;;;;4979280;28;20138;-66
2023/07/10 04:18:34;;;;;;;4.40;2.63;;;27.90;46.10;;;;;;4980705;28;20026;-66
2023/07/10 04:21:02;;;;;;;3.90;2.58;;;27.90;46.10;;;;;;4979338;28;20061;-66
2023/07/10 04:23:28;;;;;;;4.93;2.50;;;27.90;46.20;;;;;;4960359;28;20045;-66
2023/07/10 04:25:55;;;;;;;4.70;2.88;;;27.80;46.20;;;;;;4979961;28;20184;-66
2023/07/10 04:28:21;;;;;;;4.82;3.33;;;27.80;46.10;;;;;;4981115;28;20358;-66
2023/07/10 04:30:47;;;;;;;4.50;2.50;;;27.80;46.60;;;;;;4979507;28;20554;-66
2023/07/10 04:33:16;;;;;;;5.15;3.08;;;27.80;46.10;;;;;;4979402;28;20041;-66
2023/07/10 04:35:43;;;;;;;4.43;2.65;;;27.70;46.10;;;;;;4978269;28;20479;-65
2023/07/10 04:38:10;;;;;;;4.32;2.70;;;27.70;46.20;;;;;;4977846;28;20039;-66
2023/07/10 04:40:35;;;;;;;4.30;2.60;;;27.70;46.20;;;;;;4963863;28;20023;-66
2023/07/10 04:43:04;;;;;;;5.50;3.30;;;27.70;46.20;;;;;;4979529;28;20105;-66
2023/07/10 04:45:29;;;;;;;5.18;3.03;;;27.70;46.20;;;;;;4978272;28;20517;-66
2023/07/10 04:47:55;;;;;;;5.07;3.00;;;27.70;46.30;;;;;;4976717;28;20022;-66
2023/07/10 04:50:21;;;;;;;4.95;2.83;;;27.60;46.30;;;;;;4978294;28;20058;-66
2023/07/10 04:52:47;;;;;;;5.60;3.10;;;27.60;46.40;;;;;;4979013;28;20085;-66
2023/07/10 04:55:13;;;;;;;7.03;3.13;;;27.60;46.70;;;;;;4964431;28;20034;-65
2023/07/10 04:57:38;;;;;;;5.40;3.00;;;27.60;46.90;;;;;;4979591;28;20059;-68
2023/07/10 05:00:05;;;;;;;5.80;3.05;;;27.50;47.00;;;;;;4979846;28;20046;-67
2023/07/10 05:02:30;;;;;;;5.88;2.65;;;27.50;46.90;;;;;;4978677;28;20517;-67
2023/07/10 05:04:56;;;;;;;6.03;2.95;;;27.50;47.00;;;;;;4978466;28;20063;-67
2023/07/10 05:07:22;;;;;;;5.10;2.78;;;27.50;47.10;;;;;;4977124;28;20037;-67
2023/07/10 05:09:47;;;;;;;4.88;2.45;;;27.50;47.10;;;;;;4977749;28;20083;-67
2023/07/10 05:12:13;;;;;;;5.07;2.60;;;27.50;47.10;;;;;;4981325;28;20026;-67
2023/07/10 05:14:39;;;;;;;6.65;3.17;;;27.50;47.10;;;;;;4977477;28;20078;-67
2023/07/10 05:17:04;;;;;;;4.15;2.80;;;27.40;47.00;;;;;;4978886;28;20062;-67
2023/07/10 05:19:32;;;;;;;4.13;2.60;;;27.50;47.10;;;;;;4961801;28;20407;-67
2023/07/10 05:21:59;;;;;;;4.43;2.43;;;27.50;47.00;;;;;;4981712;28;20336;-67
2023/07/10 05:24:24;;;;;;;3.47;2.55;;;27.50;47.00;;;;;;4968433;28;20265;-67
2023/07/10 05:26:50;;;;;;;5.53;2.80;;;27.50;47.00;;;;;;4983089;28;20041;-67
2023/07/10 05:29:16;;;;;;;5.90;2.60;;;27.50;47.00;;;;;;4983176;28;20038;-67
2023/07/10 05:31:41;;;;;;;5.00;2.65;;;27.50;46.90;;;;;;4982129;28;20435;-67
2023/07/10 05:34:07;;;;;;;4.80;2.80;;;27.50;46.90;;;;;;4982475;28;20026;-67
2023/07/10 05:36:32;;;;;;;5.00;2.60;;;27.50;46.90;;;;;;4979616;28;20483;-67
2023/07/10 05:38:58;;;;;;;4.32;2.70;;;27.50;46.90;;;;;;4983015;28;20069;-67
2023/07/10 05:41:23;;;;;;;4.15;2.47;;;27.50;46.90;;;;;;4983553;28;20113;-67
2023/07/10 05:43:49;;;;;;;4.45;2.40;;;27.50;46.90;;;;;;4984363;28;20588;-67
2023/07/10 05:46:15;;;;;;;5.32;2.90;;;27.50;46.90;;;;;;4965920;28;20427;-68
2023/07/10 05:48:41;;;;;;;3.78;2.60;;;27.50;46.90;;;;;;4979909;28;20109;-67
2023/07/10 05:51:07;;;;;;;4.55;2.70;;;27.50;46.90;;;;;;4981532;28;20863;-67
2023/07/10 05:53:35;;;;;;;3.40;2.20;;;27.50;46.90;;;;;;4980467;28;20110;-67
2023/07/10 05:56:02;;;;;;;3.50;2.42;;;27.50;46.80;;;;;;4972720;28;20467;-67
2023/07/10 05:58:30;;;;;;;4.90;2.42;;;27.50;46.90;;;;;;4964893;28;20097;-67
2023/07/10 06:00:58;;;;;;;4.57;2.63;;;27.50;46.90;;;;;;4982043;28;20030;-67
2023/07/10 06:03:25;;;;;;;4.97;2.88;;;27.50;46.80;;;;;;4980530;28;20102;-67
2023/07/10 06:05:56;;;;;;;4.40;2.70;;;27.50;46.80;;;;;;4981458;28;20092;-66
2023/07/10 06:08:23;;;;;;;4.68;2.55;;;27.50;46.80;;;;;;4981044;28;20035;-65
2023/07/10 06:10:49;;;;;;;4.00;2.50;;;27.50;46.80;;;;;;4981695;28;20114;-66
2023/07/10 06:13:15;;;;;;;4.93;2.95;;;27.50;46.80;;;;;;4980784;28;20127;-66
2023/07/10 06:15:42;;;;;;;4.07;2.42;;;27.50;46.80;;;;;;4982083;28;20542;-66
2023/07/10 06:18:08;;;;;;;3.92;2.55;;;27.50;46.90;;;;;;4981507;28;20038;-66
2023/07/10 06:20:33;;;;;;;3.97;2.35;;;27.50;46.80;;;;;;4982063;28;20510;-66
2023/07/10 06:22:59;;;;;;;4.07;2.35;;;27.50;46.80;;;;;;4980541;28;20031;-66
2023/07/10 06:25:25;;;;;;;3.50;2.30;;;27.50;46.80;;;;;;4980418;28;20463;-66
2023/07/10 06:27:50;;;;;;;4.63;2.38;;;27.50;46.80;;;;;;4971269;28;20026;-66
2023/07/10 06:30:16;;;;;;;4.75;2.30;;;27.50;46.80;;;;;;4979183;28;20043;-66
2023/07/10 06:32:41;;;;;;;3.28;2.20;;;27.50;46.80;;;;;;4980973;28;20026;-66
2023/07/10 06:35:12;;;;;;;3.83;2.28;;;27.50;46.80;;;;;;4982382;28;20058;-66
2023/07/10 06:37:40;;;;;;;4.50;2.40;;;27.50;46.80;;;;;;4980982;28;20097;-66
2023/07/10 06:40:09;;;;;;;3.58;2.20;;;27.50;46.80;;;;;;4981642;28;20027;-67
2023/07/10 06:42:36;;;;;;;5.65;2.53;;;27.50;46.80;;;;;;4981428;28;20141;-67
2023/07/10 06:45:02;;;;;;;3.65;2.28;;;27.50;46.80;;;;;;4978067;28;20053;-67
2023/07/10 06:47:29;;;;;;;4.15;2.17;;;27.50;46.80;;;;;;4981068;28;20035;-66
2023/07/10 06:49:55;;;;;;;4.30;2.38;;;27.50;46.80;;;;;;4980936;28;20035;-66
2023/07/10 06:52:20;;;;;;;4.47;2.47;;;27.50;46.80;;;;;;4979936;28;20030;-66
2023/07/10 06:54:46;;;;;;;3.17;2.15;;;27.50;46.80;;;;;;4981082;28;20031;-66
2023/07/10 06:57:11;;;;;;;4.00;2.33;;;27.50;46.80;;;;;;4966136;28;20038;-66
2023/07/10 06:59:37;;;;;;;4.28;2.47;;;27.50;46.80;;;;;;4981200;28;20129;-66
2023/07/10 07:02:03;;;;;;;3.47;2.20;;;27.50;46.80;;;;;;4966888;28;20046;-66
2023/07/10 07:04:29;;;;;;;3.80;2.40;;;27.50;46.80;;;;;;4965479;28;20122;-66
2023/07/10 07:06:54;;;;;;;3.47;2.10;;;27.50;46.80;;;;;;4980857;28;20031;-66
2023/07/10 07:09:20;;;;;;;4.70;2.50;;;27.50;46.80;;;;;;4962773;28;20081;-66
2023/07/10 07:11:45;;;;;;;3.72;2.40;;;27.50;46.80;;;;;;4978704;28;20108;-66
2023/07/10 07:14:11;;;;;;;3.50;2.30;;;27.50;46.80;;;;;;4971631;28;20443;-66
2023/07/10 07:16:36;;;;;;;4.15;2.38;;;27.50;46.80;;;;;;4978938;28;20034;-66
2023/07/10 07:19:02;;;;;;;4.57;2.50;;;27.50;46.80;;;;;;4980152;28;20061;-66
2023/07/10 07:21:28;;;;;;;3.28;2.15;;;27.50;46.80;;;;;;4981022;28;20395;-66
2023/07/10 07:23:53;;;;;;;3.70;2.30;;;27.50;46.80;;;;;;4960958;28;20066;-66
2023/07/10 07:26:19;;;;;;;3.83;2.30;;;27.50;46.80;;;;;;4979885;28;20018;-66
2023/07/10 07:28:44;;;;;;;5.57;2.42;;;27.50;46.80;;;;;;4980983;28;20099;-67
2023/07/10 07:31:10;;;;;;;3.72;2.33;;;27.50;46.80;;;;;;4971323;28;20041;-67
2023/07/10 07:33:36;;;;;;;2.90;2.30;;;27.50;46.80;;;;;;4979524;28;20498;-66
2023/07/10 07:36:02;;;;;;;3.67;2.10;;;27.50;46.80;;;;;;4981923;28;20085;-66
2023/07/10 07:38:28;;;;;;;4.68;2.35;;;27.50;46.80;;;;;;4980090;28;20027;-66
2023/07/10 07:40:57;;;;;;;3.72;2.53;;;27.50;46.80;;;;;;4979213;28;20031;-66
2023/07/10 07:43:22;;;;;;;3.85;2.60;;;27.50;46.80;;;;;;4979811;28;20026;-66
2023/07/10 07:45:53;;;;;;;3.40;2.30;;;27.50;46.80;;;;;;4965948;28;20030;-66
2023/07/10 07:48:19;;;;;;;4.53;2.42;;;27.40;46.80;;;;;;4978939;28;20129;-66
2023/07/10 07:50:54;;;;;;;2.88;2.05;;;27.40;46.70;;;;;;4978644;28;20467;-66
2023/07/10 07:53:20;;;;;;;3.42;2.30;;;27.50;47.30;;;;;;4977801;28;20065;-66
2023/07/10 07:55:45;;;;;;;3.90;2.33;;;27.50;46.80;;;;;;4980785;28;20105;-66
2023/07/10 07:58:11;;;;;;;4.18;2.30;;;27.50;46.80;;;;;;4979338;28;20030;-66
2023/07/10 08:00:36;;;;;;;3.25;2.20;;;27.40;46.80;;;;;;4980964;28;20141;-66
2023/07/10 08:03:02;;;;;;;4.00;2.20;;;27.50;46.80;;;;;;4965170;28;20030;-66
2023/07/10 08:05:28;;;;;;;4.85;2.20;;;27.50;46.80;;;;;;4977432;28;20041;-66
2023/07/10 08:07:53;;;;;;;4.28;2.05;;;27.50;46.80;;;;;;4961594;28;20033;-66
2023/07/10 08:10:19;;;;;;;3.75;2.25;;;27.40;46.80;;;;;;4970874;28;20031;-67
2023/07/10 08:12:44;;;;;;;3.45;2.10;;;27.40;46.80;;;;;;4962609;28;20026;-66
2023/07/10 08:15:10;;;;;;;3.38;2.13;;;27.40;46.80;;;;;;4964882;28;20041;-67
2023/07/10 08:17:35;;;;;;;3.22;2.05;;;27.50;46.80;;;;;;4980283;28;20042;-66
2023/07/10 08:20:01;;;;;;;2.90;2.20;;;27.50;46.80;;;;;;4979203;28;20119;-66
2023/07/10 08:22:27;;;;;;;3.10;2.10;;;27.50;46.80;;;;;;4977815;28;20061;-67
2023/07/10 08:24:52;;;;;;;3.35;2.10;;;27.50;46.80;;;;;;4978412;28;20043;-67
2023/07/10 08:27:18;;;;;;;3.70;2.38;;;27.40;46.70;;;;;;4981942;28;20486;-66
2023/07/10 08:29:44;;;;;;;2.55;1.85;;;27.50;46.80;;;;;;4979739;28;20035;-66
2023/07/10 08:32:10;;;;;;;3.95;1.98;;;27.50;46.80;;;;;;4981250;28;20041;-66
2023/07/10 08:34:36;;;;;;;3.78;2.03;;;27.40;46.70;;;;;;4979440;28;20490;-67
2023/07/10 08:37:02;;;;;;;3.75;2.30;;;27.40;46.70;;;;;;4964965;28;20027;-67
2023/07/10 08:39:28;;;;;;;3.40;2.15;;;27.40;47.30;;;;;;4976037;28;20185;-66
2023/07/10 08:42:02;;;;;;;3.33;2.15;;;27.40;46.70;;;;;;4977747;28;20113;-67
2023/07/10 08:44:34;;;;;;;3.13;2.10;;;27.40;46.80;;;;;;4966419;28;20081;-67
2023/07/10 08:47:09;;;;;;;2.83;2.28;;;27.40;46.80;;;;;;4961117;28;20133;-67
2023/07/10 08:49:40;;;;;;;3.45;2.20;;;27.40;46.80;;;;;;4977440;28;20053;-67
2023/07/10 08:52:10;;;;;;;3.58;2.15;;;27.40;46.70;;;;;;4977359;28;20026;-67
2023/07/10 08:54:36;;;;;;;3.30;1.90;;;27.40;46.70;;;;;;4975812;28;20483;-67
2023/07/10 08:57:29;;;;;;;3.10;2.17;;;27.40;46.80;;;;;;4961646;28;20073;-67
2023/07/10 09:00:08;;;;;;;3.10;2.00;;;27.40;46.80;;;;;;4979489;28;20479;-67
2023/07/10 09:02:43;;;;;;;2.70;2.08;;;27.40;46.80;;;;;;4978809;28;20038;-67
2023/07/10 09:05:20;;;;;;;2.70;1.90;;;27.40;46.80;;;;;;4978942;28;20034;-67
2023/07/10 09:07:48;;;;;;;2.97;2.10;;;27.40;46.80;;;;;;4977385;28;20031;-67
2023/07/10 09:10:19;;;;;;;3.22;2.00;;;27.40;46.80;;;;;;4977488;28;20034;-67
2023/07/10 09:12:51;;;;;;;2.90;2.00;;;27.40;46.80;;;;;;4977785;28;20102;-67
2023/07/10 09:15:32;;;;;;;3.55;2.13;;;27.40;46.80;;;;;;4975663;28;20029;-67
2023/07/10 09:18:25;;;;;;;2.95;1.85;;;27.40;46.80;;;;;;4979335;28;20026;-67
2023/07/10 09:20:58;;;;;;;3.35;2.00;;;27.40;46.80;;;;;;4978413;28;20030;-67
2023/07/10 09:23:24;;;;;;;2.70;2.00;;;27.40;46.80;;;;;;4977400;28;20057;-67
2023/07/10 09:25:56;;;;;;;3.20;2.20;;;27.40;46.80;;;;;;4962887;28;20548;-67
2023/07/10 09:28:26;;;;;;;3.60;2.00;;;27.40;46.80;;;;;;4974267;28;20034;-67
2023/07/10 09:30:56;;;;;;;3.25;2.00;;;27.40;46.80;;;;;;4977945;28;20491;-67
2023/07/10 09:33:22;;;;;;;3.05;2.10;;;27.40;46.80;;;;;;4978014;28;20030;-67
2023/07/10 09:35:50;;;;;;;2.42;1.75;;;27.40;46.80;;;;;;4978365;28;20033;-67
2023/07/10 09:38:18;;;;;;;2.90;1.92;;;27.40;46.80;;;;;;4974721;28;20056;-67
2023/07/10 09:40:49;;;;;;;2.45;1.80;;;27.40;46.80;;;;;;4976436;28;20122;-67
2023/07/10 09:43:20;;;;;;;3.38;1.88;;;27.40;46.80;;;;;;4976572;28;20055;-67
2023/07/10 09:45:56;;;;;;;2.67;1.85;;;27.40;46.80;;;;;;4979162;28;20037;-67
2023/07/10 09:48:30;;;;;;;2.50;1.80;;;27.40;46.80;;;;;;4977514;28;20054;-67
2023/07/10 09:50:57;;;;;;;2.55;1.85;;;27.40;46.80;;;;;;4978288;28;20023;-67
2023/07/10 09:53:31;;;;;;;3.13;2.00;;;27.40;46.80;;;;;;4976766;28;20442;-67
2023/07/10 09:55:58;;;;;;;3.10;2.05;;;27.40;46.80;;;;;;4966740;28;20494;-67
2023/07/10 09:58:23;;;;;;;3.22;2.10;;;27.40;46.80;;;;;;4978586;28;20611;-67
2023/07/10 10:00:49;;;;;;;3.42;1.88;;;27.40;46.90;;;;;;4978875;28;20019;-67
2023/07/10 10:03:19;;;;;;;2.50;1.80;;;27.40;46.90;;;;;;4962256;28;20419;-67
2023/07/10 10:05:48;;;;;;;;;;;27.40;46.80;;;;;;4978169;28;20065;-67
2023/07/10 10:08:24;;;;;;;3.03;1.90;;;27.40;46.90;;;;;;4980432;28;19917;-67
2023/07/10 10:11:11;;;;;;;2.40;1.70;;;27.40;46.80;;;;;;4982602;28;20033;-67
2023/07/10 10:13:48;;;;;;;2.40;1.60;;;27.40;46.90;;;;;;4965706;28;20061;-67
2023/07/10 10:16:23;;;;;;;2.67;1.90;;;27.40;46.90;;;;;;4982208;28;20483;-67
2023/07/10 10:19:00;;;;;;;2.92;1.90;;;27.40;46.90;;;;;;4981643;28;20026;-67
2023/07/10 10:21:29;;;;;;;2.58;2.00;;;27.40;46.90;;;;;;4973049;28;20066;-67
2023/07/10 10:23:58;;;;;;;4.22;2.20;;;27.40;46.90;;;;;;4981138;28;20034;-67
2023/07/10 10:26:31;;;;;;;3.10;1.83;;;27.40;46.90;;;;;;4981602;28;20030;-67
2023/07/10 10:29:42;;;;;;;3.05;2.00;;;27.40;46.90;;;;;;4981091;28;20320;-67
2023/07/10 10:32:19;;;;;;;2.95;1.73;;;27.40;47.00;;;;;;4943795;28;20104;-67
2023/07/10 10:35:19;;;;;;;2.92;1.83;;;27.40;46.90;;;;;;4979170;28;20023;-67
2023/07/10 10:38:20;;;;;;;2.67;1.95;;;27.40;46.90;;;;;;4980806;28;20081;-67
2023/07/10 10:40:59;;;;;;;2.67;1.67;;;27.40;46.90;;;;;;4978477;28;20034;-67
2023/07/10 10:43:42;;;;;;;2.50;1.70;;;27.40;47.00;;;;;;4981569;28;20041;-67
2023/07/10 10:46:30;;;;;;;3.10;1.90;;;27.40;46.90;;;;;;4979869;28;20037;-67
2023/07/10 10:49:25;;;;;;;3.08;1.95;;;27.40;47.00;;;;;;4979473;28;20031;-67
2023/07/10 10:52:29;;;;;;;2.15;1.58;;;27.40;47.00;;;;;;4981749;28;20043;-67
2023/07/10 10:55:36;;;;;;;2.90;2.10;;;27.40;47.00;;;;;;4939988;28;20110;-66
2023/07/10 10:58:06;;;;;;;2.83;1.63;;;27.40;47.00;;;;;;4979580;28;20038;-67
2023/07/10 11:00:56;;;;;;;2.30;1.60;;;27.40;47.00;;;;;;4967594;28;20141;-67
2023/07/10 11:03:32;;;;;;;3.92;1.90;;;27.40;47.00;;;;;;4979862;28;20030;-67
2023/07/10 11:06:12;;;;;;;2.58;1.70;;;27.40;47.00;;;;;;4979645;28;20034;-66
2023/07/10 11:08:43;;;;;;;2.83;1.90;;;27.40;47.00;;;;;;4980736;28;20391;-67
2023/07/10 11:11:21;;;;;;;2.53;1.90;;;27.40;47.00;;;;;;4977949;28;20035;-67
2023/07/10 11:13:48;;;;;;;2.25;1.60;;;27.40;47.10;;;;;;4982258;28;20502;-67
2023/07/10 11:16:14;;;;;;;2.50;1.70;;;27.40;47.10;;;;;;4979481;28;20061;-67
2023/07/10 11:18:40;;;;;;;2.40;1.70;;;27.40;47.10;;;;;;4978939;28;20062;-66
2023/07/10 11:21:06;;;;;;;2.33;1.80;;;27.40;47.10;;;;;;4981248;28;20042;-67
2023/07/10 11:23:34;;;;;;;2.25;1.65;;;27.40;47.10;;;;;;4980039;28;20453;-67
2023/07/10 11:26:07;;;;;;;2.72;1.80;;;27.40;47.10;;;;;;4964750;28;20078;-67
2023/07/10 11:28:32;;;;;;;2.35;1.80;;;27.40;47.10;;;;;;4980044;28;20034;-67
2023/07/10 11:31:31;;;;;;;2.17;1.50;;;27.40;47.10;;;;;;4983287;28;20027;-67
2023/07/10 11:34:19;;;;;;;2.20;1.67;;;27.40;47.10;;;;;;4929365;28;20182;-66
2023/07/10 11:36:45;;;;;;;2.45;1.58;;;27.40;47.10;;;;;;4980242;28;20497;-67
2023/07/10 11:39:30;;;;;;;2.50;1.50;;;27.40;47.10;;;;;;4979118;28;20121;-66
2023/07/10 11:41:56;;;;;;;2.25;1.50;;;27.40;47.10;;;;;;4977815;28;20023;-67
2023/07/10 11:44:28;;;;;;;2.30;1.67;;;27.40;47.10;;;;;;4979754;28;20461;-67
2023/07/10 11:46:57;;;;;;;2.33;1.55;;;27.50;47.20;;;;;;4965371;28;20043;-66
2023/07/10 11:49:25;;;;;;;2.60;1.70;;;27.40;47.10;;;;;;4979690;28;20054;-66
2023/07/10 11:52:09;;;;;;;2.17;1.50;;;27.50;47.30;;;;;;4964963;28;20035;-67
2023/07/10 11:54:41;;;;;;;2.22;1.60;;;27.50;47.30;;;;;;4979609;28;20018;-67
2023/07/10 11:57:06;;;;;;;2.60;1.70;;;27.50;47.20;;;;;;4978835;28;20019;-67
2023/07/10 11:59:54;;;;;;;2.20;1.50;;;27.40;47.30;;;;;;4964619;28;20033;-67
2023/07/10 12:02:29;;;;;;;2.63;1.70;;;27.50;47.30;;;;;;4980846;28;20088;-66
2023/07/10 12:04:58;;;;;;;3.20;1.60;;;27.50;47.30;;;;;;4979703;28;20110;-67
2023/07/10 12:07:23;;;;;;;2.45;1.67;;;27.50;47.30;;;;;;4980100;28;20393;-67
2023/07/10 12:09:51;;;;;;;2.53;1.73;;;27.50;47.30;;;;;;4977751;28;20046;-65
2023/07/10 12:12:16;;;;;;;2.40;1.60;;;27.50;47.50;;;;;;4979247;28;20049;-65
2023/07/10 12:14:42;;;;;;;2.75;1.67;;;27.50;47.70;;;;;;4970114;28;20470;-66
2023/07/10 12:17:16;;;;;;;2.67;1.90;;;27.50;47.70;;;;;;4980039;28;20023;-66
2023/07/10 12:19:42;;;;;;;2.35;1.80;;;27.50;47.70;;;;;;4978058;28;20033;-68
2023/07/10 12:22:24;;;;;;;2.70;1.63;;;27.50;47.70;;;;;;4979266;28;20018;-67
2023/07/10 12:24:58;;;;;;;2.70;1.75;;;27.50;47.90;;;;;;4978545;28;20542;-68
2023/07/10 12:27:24;;;;;;;2.28;1.65;;;27.60;48.10;;;;;;4979504;28;20141;-68
2023/07/10 12:29:52;;;;;;;2.35;1.70;;;27.60;48.20;;;;;;4977915;28;20148;-67
2023/07/10 12:32:18;;;;;;;2.35;1.55;;;27.60;48.00;;;;;;4981667;28;20490;-68
2023/07/10 12:34:46;;;;;;;2.38;1.70;;;27.60;48.20;;;;;;4966629;28;20077;-67
2023/07/10 12:37:13;;;;;;;2.50;1.80;;;27.60;48.40;;;;;;4978614;28;20034;-68
2023/07/10 12:39:39;;;;;;;1.90;1.50;;;27.60;49.10;;;;;;4976158;28;20092;-67
2023/07/10 12:42:25;;;;;;;2.70;1.80;;;27.70;48.90;;;;;;4978885;28;20470;-68
2023/07/10 12:44:50;;;;;;;2.60;1.90;;;27.70;48.40;;;;;;4976451;28;20487;-68
2023/07/10 12:47:17;;;;;;;2.90;1.98;;;27.70;48.20;;;;;;4979395;28;20044;-67
2023/07/10 12:49:54;;;;;;;3.17;2.03;;;27.70;48.20;;;;;;4980119;28;20033;-67
2023/07/10 12:52:23;;;;;;;3.30;2.03;;;27.70;48.20;;;;;;4976790;28;20032;-67
2023/07/10 12:54:52;;;;;;;3.30;2.08;;;27.60;48.10;;;;;;4976714;28;20033;-68
2023/07/10 12:57:26;;;;;;;2.45;1.83;;;27.70;48.20;;;;;;4979291;28;20023;-68
2023/07/10 13:00:00;;;;;;;2.72;2.03;;;27.70;48.20;;;;;;4978187;28;20022;-68